This is the latest recevied weather packets stored in our database for station/object WX4LTG. If no packets are shown the sender has not sent any weather packets the latest 1 day(s).
| Time | Temp. | Humidity | Pressure | Rain* | Wind** | Luminosity | Snow |
|---|---|---|---|---|---|---|---|
| 1778012011 | 23.89° C | 32% | 1010.6 hPa | 0 mm | 3.13 m/s, 249° | 858 W/m² | - |
| 1778011710 | 23.89° C | 34% | 1011 hPa | 0 mm | 1.79 m/s, 209° | 196 W/m² | - |
| 1778011406 | 23.89° C | 34% | 1011.1 hPa | 0 mm | 1.34 m/s, 236° | 478 W/m² | - |
| 1778011102 | 22.78° C | 36% | 1011 hPa | 0 mm | 3.13 m/s, 222° | 263 W/m² | - |
| 1778010799 | 22.78° C | 36% | 1011.1 hPa | 0 mm | 1.79 m/s, 270° | 226 W/m² | - |
| 1778010496 | 23.33° C | 36% | 1011.2 hPa | 0 mm | 0.89 m/s, 181° | 230 W/m² | - |
| 1778010194 | 23.33° C | 36% | 1011.1 hPa | 0 mm | 0.45 m/s, 204° | 252 W/m² | - |
| 1778009888 | 23.89° C | 35% | 1011.3 hPa | 0 mm | 1.79 m/s, 254° | 263 W/m² | - |
| 1778009587 | 23.33° C | 38% | 1011.4 hPa | 0 mm | 0 m/s | 344 W/m² | - |
| 1778009285 | 23.33° C | 38% | 1011.4 hPa | 0 mm | 0 m/s | 888 W/m² | - |
| 1778008982 | 23.89° C | 38% | 1011.5 hPa | 0 mm | 2.68 m/s, 203° | 237 W/m² | - |
| 1778008680 | 23.89° C | 38% | 1011.4 hPa | 0 mm | 0 m/s | 397 W/m² | - |
| 1778008378 | 23.89° C | 39% | 1011.3 hPa | 0 mm | 1.79 m/s, 202° | 277 W/m² | - |
| 1778008074 | 23.33° C | 39% | 1011.3 hPa | 0 mm | 0.89 m/s, 99° | 950 W/m² | - |
| 1778007769 | 22.78° C | 39% | 1011.3 hPa | 0 mm | 1.34 m/s, 202° | 496 W/m² | - |
| 1778007466 | 23.33° C | 38% | 1011.3 hPa | 0 mm | 2.24 m/s, 254° | 916 W/m² | - |
| 1778007162 | 22.78° C | 40% | 1011.5 hPa | 0 mm | 0 m/s | 665 W/m² | - |
| 1778006858 | 23.33° C | 41% | 1011.6 hPa | 0 mm | 1.34 m/s, 244° | 889 W/m² | - |
| 1778006556 | 22.78° C | 40% | 1011.6 hPa | 0 mm | 2.24 m/s, 218° | 882 W/m² | - |
| 1778006252 | 23.33° C | 40% | 1011.9 hPa | 0 mm | 1.34 m/s, 143° | 299 W/m² | - |
| 1778005951 | 22.78° C | 42% | 1011.7 hPa | 0 mm | 0.45 m/s, 162° | 809 W/m² | - |
| 1778005646 | 23.33° C | 42% | 1011.9 hPa | 0 mm | 1.34 m/s, 291° | 295 W/m² | - |
| 1778005343 | 22.78° C | 43% | 1011.9 hPa | 0 mm | 1.79 m/s, 228° | 362 W/m² | - |
| 1778005040 | 23.33° C | 41% | 1012 hPa | 0 mm | 3.13 m/s, 251° | 223 W/m² | - |
| 1778004737 | 22.78° C | 43% | 1011.8 hPa | 0 mm | 1.34 m/s, 232° | 790 W/m² | - |
* Rain latest hour (hover to see other rain measurements)
** Current wind speed in m/s (hover to see current wind gust speed)